sensor_id;sensor_type;location;lat;lon;timestamp;pressure;altitude;pressure_sealevel;temperature;humidity
55994;BME280;67425;52.126;20.638;2023-02-04T00:00:53;57834.09;;;-144.78;100.00
55994;BME280;67425;52.126;20.638;2023-02-04T00:03:18;57850.72;;;-144.78;100.00
55994;BME280;67425;52.126;20.638;2023-02-04T00:05:44;57850.72;;;-144.78;100.00
55994;BME280;67425;52.126;20.638;2023-02-04T00:08:09;57886.03;;;-144.78;100.00
55994;BME280;67425;52.126;20.638;2023-02-04T00:10:35;57856.94;;;-144.78;100.00
55994;BME280;67425;52.126;20.638;2023-02-04T00:13:01;57867.34;;;-144.78;100.00
55994;BME280;67425;52.126;20.638;2023-02-04T00:15:26;57854.88;;;-144.78;100.00
55994;BME280;67425;52.126;20.638;2023-02-04T00:17:51;57877.72;;;-144.78;100.00
55994;BME280;67425;52.126;20.638;2023-02-04T00:20:17;57852.78;;;-144.78;100.00
55994;BME280;67425;52.126;20.638;2023-02-04T00:22:44;57892.25;;;-144.78;100.00
55994;BME280;67425;52.126;20.638;2023-02-04T00:25:09;57890.19;;;-144.78;100.00
55994;BME280;67425;52.126;20.638;2023-02-04T00:27:35;57873.56;;;-144.78;100.00
55994;BME280;67425;52.126;20.638;2023-02-04T00:30:00;57859.03;;;-144.78;100.00
55994;BME280;67425;52.126;20.638;2023-02-04T00:32:25;57875.63;;;-144.78;100.00
55994;BME280;67425;52.126;20.638;2023-02-04T00:34:51;57881.88;;;-144.78;100.00
55994;BME280;67425;52.126;20.638;2023-02-04T00:37:17;57892.25;;;-144.78;100.00
55994;BME280;67425;52.126;20.638;2023-02-04T00:39:43;57863.19;;;-144.78;100.00
55994;BME280;67425;52.126;20.638;2023-02-04T00:42:08;57856.94;;;-144.78;100.00
55994;BME280;67425;52.126;20.638;2023-02-04T00:44:33;57890.19;;;-144.78;100.00
55994;BME280;67425;52.126;20.638;2023-02-04T00:47:00;57840.34;;;-144.78;100.00
55994;BME280;67425;52.126;20.638;2023-02-04T00:49:25;57852.78;;;-144.78;100.00
55994;BME280;67425;52.126;20.638;2023-02-04T00:51:51;57879.78;;;-144.78;100.00
55994;BME280;67425;52.126;20.638;2023-02-04T00:54:16;57854.88;;;-144.78;100.00
55994;BME280;67425;52.126;20.638;2023-02-04T00:56:42;57842.41;;;-144.78;100.00
55994;BME280;67425;52.126;20.638;2023-02-04T00:59:08;57865.25;;;-144.78;100.00
55994;BME280;67425;52.126;20.638;2023-02-04T01:01:33;57861.09;;;-144.78;100.00
55994;BME280;67425;52.126;20.638;2023-02-04T01:03:58;57890.19;;;-144.78;100.00
55994;BME280;67425;52.126;20.638;2023-02-04T01:06:24;57877.72;;;-144.78;100.00
55994;BME280;67425;52.126;20.638;2023-02-04T01:08:50;57861.09;;;-144.78;100.00
55994;BME280;67425;52.126;20.638;2023-02-04T01:11:15;57871.50;;;-144.78;100.00
55994;BME280;67425;52.126;20.638;2023-02-04T01:13:41;57844.47;;;-144.78;100.00
55994;BME280;67425;52.126;20.638;2023-02-04T01:16:06;57867.34;;;-144.78;100.00
55994;BME280;67425;52.126;20.638;2023-02-04T01:18:32;57856.94;;;-144.78;100.00
55994;BME280;67425;52.126;20.638;2023-02-04T01:20:57;57846.56;;;-144.78;100.00
55994;BME280;67425;52.126;20.638;2023-02-04T01:23:22;57867.34;;;-144.78;100.00
55994;BME280;67425;52.126;20.638;2023-02-04T01:25:48;57859.03;;;-144.78;100.00
55994;BME280;67425;52.126;20.638;2023-02-04T01:28:13;57863.19;;;-144.78;100.00
55994;BME280;67425;52.126;20.638;2023-02-04T01:30:38;57871.50;;;-144.78;100.00
55994;BME280;67425;52.126;20.638;2023-02-04T01:33:03;57867.34;;;-144.78;100.00
55994;BME280;67425;52.126;20.638;2023-02-04T01:35:29;57867.34;;;-144.78;100.00
55994;BME280;67425;52.126;20.638;2023-02-04T01:37:54;57865.25;;;-144.78;100.00
55994;BME280;67425;52.126;20.638;2023-02-04T01:40:19;57869.41;;;-144.78;100.00
55994;BME280;67425;52.126;20.638;2023-02-04T01:42:45;57846.56;;;-144.78;100.00
55994;BME280;67425;52.126;20.638;2023-02-04T01:45:11;57883.94;;;-144.78;100.00
55994;BME280;67425;52.126;20.638;2023-02-04T01:47:37;57850.72;;;-144.78;100.00
55994;BME280;67425;52.126;20.638;2023-02-04T01:50:03;57846.56;;;-144.78;100.00
55994;BME280;67425;52.126;20.638;2023-02-04T01:52:34;57867.34;;;-144.78;100.00
55994;BME280;67425;52.126;20.638;2023-02-04T01:55:00;57852.78;;;-144.78;100.00
55994;BME280;67425;52.126;20.638;2023-02-04T01:57:26;57873.56;;;-144.78;100.00
55994;BME280;67425;52.126;20.638;2023-02-04T01:59:54;57894.34;;;-144.78;100.00
55994;BME280;67425;52.126;20.638;2023-02-04T02:05:06;57865.25;;;-144.78;100.00
55994;BME280;67425;52.126;20.638;2023-02-04T02:07:32;57871.50;;;-144.78;100.00
55994;BME280;67425;52.126;20.638;2023-02-04T02:09:57;57888.09;;;-144.78;100.00
55994;BME280;67425;52.126;20.638;2023-02-04T02:12:23;57846.56;;;-144.78;100.00
55994;BME280;67425;52.126;20.638;2023-02-04T02:14:48;57869.41;;;-144.78;100.00
55994;BME280;67425;52.126;20.638;2023-02-04T02:17:13;57873.56;;;-144.78;100.00
55994;BME280;67425;52.126;20.638;2023-02-04T02:19:39;57879.78;;;-144.78;100.00
55994;BME280;67425;52.126;20.638;2023-02-04T02:22:22;57865.25;;;-144.78;100.00
55994;BME280;67425;52.126;20.638;2023-02-04T02:24:50;57854.88;;;-144.78;100.00
55994;BME280;67425;52.126;20.638;2023-02-04T02:27:15;57854.88;;;-144.78;100.00
55994;BME280;67425;52.126;20.638;2023-02-04T02:29:41;57883.94;;;-144.78;100.00
55994;BME280;67425;52.126;20.638;2023-02-04T02:32:08;57856.94;;;-144.78;100.00
55994;BME280;67425;52.126;20.638;2023-02-04T02:34:35;57859.03;;;-144.78;100.00
55994;BME280;67425;52.126;20.638;2023-02-04T02:37:03;57871.50;;;-144.78;100.00
55994;BME280;67425;52.126;20.638;2023-02-04T02:39:30;57875.63;;;-144.78;100.00
55994;BME280;67425;52.126;20.638;2023-02-04T02:41:56;57838.25;;;-144.78;100.00
55994;BME280;67425;52.126;20.638;2023-02-04T02:44:22;57840.34;;;-144.78;100.00
55994;BME280;67425;52.126;20.638;2023-02-04T02:46:48;57848.63;;;-144.78;100.00
55994;BME280;67425;52.126;20.638;2023-02-04T02:49:16;57883.94;;;-144.78;100.00
55994;BME280;67425;52.126;20.638;2023-02-04T02:51:43;57827.88;;;-144.78;100.00
55994;BME280;67425;52.126;20.638;2023-02-04T02:54:19;57875.63;;;-144.78;100.00
55994;BME280;67425;52.126;20.638;2023-02-04T02:56:45;57875.63;;;-144.78;100.00
55994;BME280;67425;52.126;20.638;2023-02-04T02:59:14;57848.63;;;-144.78;100.00
55994;BME280;67425;52.126;20.638;2023-02-04T03:01:40;57890.19;;;-144.78;100.00
55994;BME280;67425;52.126;20.638;2023-02-04T03:04:07;57925.50;;;-144.78;100.00
55994;BME280;67425;52.126;20.638;2023-02-04T03:06:33;57842.41;;;-144.78;100.00
55994;BME280;67425;52.126;20.638;2023-02-04T03:08:58;57873.56;;;-144.78;100.00
55994;BME280;67425;52.126;20.638;2023-02-04T03:11:23;57873.56;;;-144.78;100.00
55994;BME280;67425;52.126;20.638;2023-02-04T03:13:51;57873.56;;;-144.78;100.00
55994;BME280;67425;52.126;20.638;2023-02-04T03:16:16;57879.78;;;-144.78;100.00
55994;BME280;67425;52.126;20.638;2023-02-04T03:18:42;57844.47;;;-144.78;100.00
55994;BME280;67425;52.126;20.638;2023-02-04T03:21:07;57865.25;;;-144.78;100.00
55994;BME280;67425;52.126;20.638;2023-02-04T03:23:33;57879.78;;;-144.78;100.00
55994;BME280;67425;52.126;20.638;2023-02-04T03:26:00;57867.34;;;-144.78;100.00
55994;BME280;67425;52.126;20.638;2023-02-04T03:28:25;57879.78;;;-144.78;100.00
55994;BME280;67425;52.126;20.638;2023-02-04T03:30:51;57838.25;;;-144.78;100.00
55994;BME280;67425;52.126;20.638;2023-02-04T03:33:25;57842.41;;;-144.78;100.00
55994;BME280;67425;52.126;20.638;2023-02-04T03:35:53;57883.94;;;-144.78;100.00
55994;BME280;67425;52.126;20.638;2023-02-04T03:38:19;57869.41;;;-144.78;100.00
55994;BME280;67425;52.126;20.638;2023-02-04T03:40:44;57886.03;;;-144.78;100.00
55994;BME280;67425;52.126;20.638;2023-02-04T03:43:10;57881.88;;;-144.78;100.00
55994;BME280;67425;52.126;20.638;2023-02-04T03:45:35;57850.72;;;-144.78;100.00
55994;BME280;67425;52.126;20.638;2023-02-04T03:48:00;57875.63;;;-144.78;100.00
55994;BME280;67425;52.126;20.638;2023-02-04T03:50:26;57838.25;;;-144.78;100.00
55994;BME280;67425;52.126;20.638;2023-02-04T03:52:51;57890.19;;;-144.78;100.00
55994;BME280;67425;52.126;20.638;2023-02-04T03:55:18;57852.78;;;-144.78;100.00
55994;BME280;67425;52.126;20.638;2023-02-04T03:57:43;57859.03;;;-144.78;100.00
55994;BME280;67425;52.126;20.638;2023-02-04T04:00:09;57877.72;;;-144.78;100.00
55994;BME280;67425;52.126;20.638;2023-02-04T04:02:35;57854.88;;;-144.78;100.00
55994;BME280;67425;52.126;20.638;2023-02-04T04:05:00;57871.50;;;-144.78;100.00
55994;BME280;67425;52.126;20.638;2023-02-04T04:07:25;57892.25;;;-144.78;100.00
55994;BME280;67425;52.126;20.638;2023-02-04T04:09:51;57871.50;;;-144.78;100.00
55994;BME280;67425;52.126;20.638;2023-02-04T04:12:16;57879.78;;;-144.78;100.00
55994;BME280;67425;52.126;20.638;2023-02-04T04:14:41;57879.78;;;-144.78;100.00
55994;BME280;67425;52.126;20.638;2023-02-04T04:17:07;57875.63;;;-144.78;100.00
55994;BME280;67425;52.126;20.638;2023-02-04T04:19:32;57856.94;;;-144.78;100.00
55994;BME280;67425;52.126;20.638;2023-02-04T04:21:58;57881.88;;;-144.78;100.00
55994;BME280;67425;52.126;20.638;2023-02-04T04:24:23;57863.19;;;-144.78;100.00
55994;BME280;67425;52.126;20.638;2023-02-04T04:26:48;57886.03;;;-144.78;100.00
55994;BME280;67425;52.126;20.638;2023-02-04T04:29:13;57883.94;;;-144.78;100.00
55994;BME280;67425;52.126;20.638;2023-02-04T04:31:39;57879.78;;;-144.78;100.00
55994;BME280;67425;52.126;20.638;2023-02-04T04:34:04;57896.41;;;-144.78;100.00
55994;BME280;67425;52.126;20.638;2023-02-04T04:36:29;57896.41;;;-144.78;100.00
55994;BME280;67425;52.126;20.638;2023-02-04T04:38:55;57869.41;;;-144.78;100.00
55994;BME280;67425;52.126;20.638;2023-02-04T04:41:20;57871.50;;;-144.78;100.00
55994;BME280;67425;52.126;20.638;2023-02-04T04:43:45;57883.94;;;-144.78;100.00
55994;BME280;67425;52.126;20.638;2023-02-04T04:46:11;57877.72;;;-144.78;100.00
55994;BME280;67425;52.126;20.638;2023-02-04T04:48:36;57883.94;;;-144.78;100.00
55994;BME280;67425;52.126;20.638;2023-02-04T04:51:02;57875.63;;;-144.78;100.00
55994;BME280;67425;52.126;20.638;2023-02-04T04:53:27;57902.63;;;-144.78;100.00
55994;BME280;67425;52.126;20.638;2023-02-04T04:55:52;57875.63;;;-144.78;100.00
55994;BME280;67425;52.126;20.638;2023-02-04T04:58:18;57877.72;;;-144.78;100.00
55994;BME280;67425;52.126;20.638;2023-02-04T05:00:43;57871.50;;;-144.78;100.00
55994;BME280;67425;52.126;20.638;2023-02-04T05:03:08;57877.72;;;-144.78;100.00
55994;BME280;67425;52.126;20.638;2023-02-04T05:05:34;57867.34;;;-144.78;100.00
55994;BME280;67425;52.126;20.638;2023-02-04T05:08:04;57879.78;;;-144.78;100.00
55994;BME280;67425;52.126;20.638;2023-02-04T05:10:29;57879.78;;;-144.78;100.00
55994;BME280;67425;52.126;20.638;2023-02-04T05:12:55;57875.63;;;-144.78;100.00
55994;BME280;67425;52.126;20.638;2023-02-04T05:15:20;57888.09;;;-144.78;100.00
55994;BME280;67425;52.126;20.638;2023-02-04T05:17:45;57883.94;;;-144.78;100.00
55994;BME280;67425;52.126;20.638;2023-02-04T05:20:11;57838.25;;;-144.78;100.00
55994;BME280;67425;52.126;20.638;2023-02-04T05:22:36;57886.03;;;-144.78;100.00
55994;BME280;67425;52.126;20.638;2023-02-04T05:25:02;57850.72;;;-144.78;100.00
55994;BME280;67425;52.126;20.638;2023-02-04T05:27:27;57879.78;;;-144.78;100.00
55994;BME280;67425;52.126;20.638;2023-02-04T05:29:52;57859.03;;;-144.78;100.00
55994;BME280;67425;52.126;20.638;2023-02-04T05:32:18;57861.09;;;-144.78;100.00
55994;BME280;67425;52.126;20.638;2023-02-04T05:34:43;57881.88;;;-144.78;100.00
55994;BME280;67425;52.126;20.638;2023-02-04T05:37:08;57906.78;;;-144.78;100.00
55994;BME280;67425;52.126;20.638;2023-02-04T05:39:34;57873.56;;;-144.78;100.00
55994;BME280;67425;52.126;20.638;2023-02-04T05:41:59;57879.78;;;-144.78;100.00
55994;BME280;67425;52.126;20.638;2023-02-04T05:44:24;57865.25;;;-144.78;100.00
55994;BME280;67425;52.126;20.638;2023-02-04T05:46:50;57875.63;;;-144.78;100.00
55994;BME280;67425;52.126;20.638;2023-02-04T05:49:15;57869.41;;;-144.78;100.00
55994;BME280;67425;52.126;20.638;2023-02-04T05:51:40;57879.78;;;-144.78;100.00
55994;BME280;67425;52.126;20.638;2023-02-04T05:54:06;57859.03;;;-144.78;100.00
55994;BME280;67425;52.126;20.638;2023-02-04T05:56:31;57879.78;;;-144.78;100.00
55994;BME280;67425;52.126;20.638;2023-02-04T05:58:56;57840.34;;;-144.78;100.00
55994;BME280;67425;52.126;20.638;2023-02-04T06:01:22;57867.34;;;-144.78;100.00
55994;BME280;67425;52.126;20.638;2023-02-04T06:03:47;57879.78;;;-144.78;100.00
55994;BME280;67425;52.126;20.638;2023-02-04T06:06:12;57875.63;;;-144.78;100.00
55994;BME280;67425;52.126;20.638;2023-02-04T06:08:38;57867.34;;;-144.78;100.00
55994;BME280;67425;52.126;20.638;2023-02-04T06:11:03;57879.78;;;-144.78;100.00
55994;BME280;67425;52.126;20.638;2023-02-04T06:13:29;57869.41;;;-144.78;100.00
55994;BME280;67425;52.126;20.638;2023-02-04T06:15:54;57873.56;;;-144.78;100.00
55994;BME280;67425;52.126;20.638;2023-02-04T06:18:19;57892.25;;;-144.78;100.00
55994;BME280;67425;52.126;20.638;2023-02-04T06:20:45;57883.94;;;-144.78;100.00
55994;BME280;67425;52.126;20.638;2023-02-04T06:23:10;57886.03;;;-144.78;100.00
55994;BME280;67425;52.126;20.638;2023-02-04T06:25:35;57861.09;;;-144.78;100.00
55994;BME280;67425;52.126;20.638;2023-02-04T06:28:00;57894.34;;;-144.78;100.00
55994;BME280;67425;52.126;20.638;2023-02-04T06:30:26;57896.41;;;-144.78;100.00
55994;BME280;67425;52.126;20.638;2023-02-04T06:32:51;57888.09;;;-144.78;100.00
55994;BME280;67425;52.126;20.638;2023-02-04T06:35:17;57867.34;;;-144.78;100.00
55994;BME280;67425;52.126;20.638;2023-02-04T06:37:42;57869.41;;;-144.78;100.00
55994;BME280;67425;52.126;20.638;2023-02-04T06:40:08;57888.09;;;-144.78;100.00
55994;BME280;67425;52.126;20.638;2023-02-04T06:42:34;57888.09;;;-144.78;100.00
55994;BME280;67425;52.126;20.638;2023-02-04T06:44:59;57906.78;;;-144.78;100.00
55994;BME280;67425;52.126;20.638;2023-02-04T06:47:25;57894.34;;;-144.78;100.00
55994;BME280;67425;52.126;20.638;2023-02-04T06:49:50;57890.19;;;-144.78;100.00
55994;BME280;67425;52.126;20.638;2023-02-04T06:52:15;57879.78;;;-144.78;100.00
55994;BME280;67425;52.126;20.638;2023-02-04T06:54:41;57898.50;;;-144.78;100.00
55994;BME280;67425;52.126;20.638;2023-02-04T06:57:06;57906.78;;;-144.78;100.00
55994;BME280;67425;52.126;20.638;2023-02-04T06:59:35;57902.63;;;-144.78;100.00
55994;BME280;67425;52.126;20.638;2023-02-04T07:02:02;57873.56;;;-144.78;100.00
55994;BME280;67425;52.126;20.638;2023-02-04T07:04:28;57892.25;;;-144.78;100.00
55994;BME280;67425;52.126;20.638;2023-02-04T07:06:53;57906.78;;;-144.78;100.00
55994;BME280;67425;52.126;20.638;2023-02-04T07:09:19;57888.09;;;-144.78;100.00
55994;BME280;67425;52.126;20.638;2023-02-04T07:11:44;57890.19;;;-144.78;100.00
55994;BME280;67425;52.126;20.638;2023-02-04T07:14:10;57892.25;;;-144.78;99.76
55994;BME280;67425;52.126;20.638;2023-02-04T07:16:35;57904.72;;;-144.78;99.14
55994;BME280;67425;52.126;20.638;2023-02-04T07:19:01;57883.94;;;-144.78;99.71
55994;BME280;67425;52.126;20.638;2023-02-04T07:21:26;57908.88;;;-144.78;99.48
55994;BME280;67425;52.126;20.638;2023-02-04T07:23:52;57923.41;;;-144.78;99.90
55994;BME280;67425;52.126;20.638;2023-02-04T07:26:17;57904.72;;;-144.78;100.00
55994;BME280;67425;52.126;20.638;2023-02-04T07:28:43;57890.19;;;-144.78;99.84
55994;BME280;67425;52.126;20.638;2023-02-04T07:31:09;57877.72;;;-144.78;99.67
55994;BME280;67425;52.126;20.638;2023-02-04T07:33:34;57906.78;;;-144.78;100.00
55994;BME280;67425;52.126;20.638;2023-02-04T07:35:59;57886.03;;;-144.78;100.00
55994;BME280;67425;52.126;20.638;2023-02-04T07:38:25;57931.72;;;-144.78;99.39
55994;BME280;67425;52.126;20.638;2023-02-04T07:40:50;57892.25;;;-144.78;99.01
55994;BME280;67425;52.126;20.638;2023-02-04T07:43:15;57883.94;;;-144.78;98.32
55994;BME280;67425;52.126;20.638;2023-02-04T07:45:41;57923.41;;;-144.78;98.91
55994;BME280;67425;52.126;20.638;2023-02-04T07:48:06;57937.94;;;-144.78;99.19
55994;BME280;67425;52.126;20.638;2023-02-04T07:50:31;57919.25;;;-144.78;98.78
55994;BME280;67425;52.126;20.638;2023-02-04T07:52:57;57915.09;;;-144.78;98.80
55994;BME280;67425;52.126;20.638;2023-02-04T07:55:22;57921.34;;;-144.78;99.11
55994;BME280;67425;52.126;20.638;2023-02-04T07:57:47;57925.50;;;-144.78;98.18
55994;BME280;67425;52.126;20.638;2023-02-04T08:00:13;57917.19;;;-144.78;98.31
55994;BME280;67425;52.126;20.638;2023-02-04T08:02:40;57942.09;;;-144.78;97.79
55994;BME280;67425;52.126;20.638;2023-02-04T08:05:06;57923.41;;;-144.78;96.68
55994;BME280;67425;52.126;20.638;2023-02-04T08:07:32;57919.25;;;-144.78;96.67
55994;BME280;67425;52.126;20.638;2023-02-04T08:09:57;57913.03;;;-144.78;95.88
55994;BME280;67425;52.126;20.638;2023-02-04T08:12:22;57900.56;;;-144.78;95.99
55994;BME280;67425;52.126;20.638;2023-02-04T08:14:48;57900.56;;;-144.78;96.09
55994;BME280;67425;52.126;20.638;2023-02-04T08:17:13;57919.25;;;-144.78;95.13
55994;BME280;67425;52.126;20.638;2023-02-04T08:19:38;57915.09;;;-144.78;95.52
55994;BME280;67425;52.126;20.638;2023-02-04T08:22:04;57900.56;;;-144.78;94.59
55994;BME280;67425;52.126;20.638;2023-02-04T08:24:29;57890.19;;;-144.78;93.47
55994;BME280;67425;52.126;20.638;2023-02-04T08:26:54;57873.56;;;-144.78;93.37
55994;BME280;67425;52.126;20.638;2023-02-04T08:29:20;57933.78;;;-144.78;93.13
55994;BME280;67425;52.126;20.638;2023-02-04T08:31:45;57888.09;;;-144.78;93.23
55994;BME280;67425;52.126;20.638;2023-02-04T08:34:12;57861.09;;;-144.78;92.55
55994;BME280;67425;52.126;20.638;2023-02-04T08:36:37;57923.41;;;-144.78;93.65
55994;BME280;67425;52.126;20.638;2023-02-04T08:39:02;57900.56;;;-144.78;94.06
55994;BME280;67425;52.126;20.638;2023-02-04T08:41:28;57898.50;;;-144.78;95.06
55994;BME280;67425;52.126;20.638;2023-02-04T08:43:54;57900.56;;;-144.78;95.17
55994;BME280;67425;52.126;20.638;2023-02-04T08:46:19;57904.72;;;-144.78;95.42
55994;BME280;67425;52.126;20.638;2023-02-04T08:48:44;57883.94;;;-144.78;94.21
55994;BME280;67425;52.126;20.638;2023-02-04T08:51:10;57873.56;;;-144.78;93.10
55994;BME280;67425;52.126;20.638;2023-02-04T08:53:35;57869.41;;;-144.78;93.20
55994;BME280;67425;52.126;20.638;2023-02-04T08:56:01;57919.25;;;-144.78;92.83
55994;BME280;67425;52.126;20.638;2023-02-04T08:58:27;57908.88;;;-144.78;91.78
55994;BME280;67425;52.126;20.638;2023-02-04T09:00:52;57890.19;;;-144.78;91.16
55994;BME280;67425;52.126;20.638;2023-02-04T09:03:17;57867.34;;;-144.78;90.46
55994;BME280;67425;52.126;20.638;2023-02-04T09:05:43;57859.03;;;-144.78;90.03
55994;BME280;67425;52.126;20.638;2023-02-04T09:08:08;57854.88;;;-144.78;90.44
55994;BME280;67425;52.126;20.638;2023-02-04T09:10:34;57877.72;;;-144.78;89.64
55994;BME280;67425;52.126;20.638;2023-02-04T09:12:59;57844.47;;;-144.78;89.36
55994;BME280;67425;52.126;20.638;2023-02-04T09:15:25;57883.94;;;-144.78;88.68
55994;BME280;67425;52.126;20.638;2023-02-04T09:17:51;57861.09;;;-144.78;88.64
55994;BME280;67425;52.126;20.638;2023-02-04T09:20:18;57856.94;;;-144.78;87.98
55994;BME280;67425;52.126;20.638;2023-02-04T09:22:45;57846.56;;;-144.78;87.52
55994;BME280;67425;52.126;20.638;2023-02-04T09:25:12;57861.09;;;-144.78;86.94
55994;BME280;67425;52.126;20.638;2023-02-04T09:27:37;57850.72;;;-144.78;87.57
55994;BME280;67425;52.126;20.638;2023-02-04T09:30:03;57856.94;;;-144.78;88.19
55994;BME280;67425;52.126;20.638;2023-02-04T09:32:28;57859.03;;;-144.78;88.43
55994;BME280;67425;52.126;20.638;2023-02-04T09:34:53;57817.47;;;-144.78;86.78
55994;BME280;67425;52.126;20.638;2023-02-04T09:37:19;57842.41;;;-144.78;88.81
55994;BME280;67425;52.126;20.638;2023-02-04T09:39:44;57827.88;;;-144.78;90.32
55994;BME280;67425;52.126;20.638;2023-02-04T09:42:15;57838.25;;;-144.78;90.92
55994;BME280;67425;52.126;20.638;2023-02-04T09:44:41;57821.63;;;-144.78;88.92
55994;BME280;67425;52.126;20.638;2023-02-04T09:47:09;57836.19;;;-144.78;88.82
55994;BME280;67425;52.126;20.638;2023-02-04T09:49:35;57846.56;;;-144.78;88.82
55994;BME280;67425;52.126;20.638;2023-02-04T09:52:01;57844.47;;;-144.78;89.27
55994;BME280;67425;52.126;20.638;2023-02-04T09:54:27;57848.63;;;-144.78;91.25
55994;BME280;67425;52.126;20.638;2023-02-04T09:56:52;57877.72;;;-144.78;90.64
55994;BME280;67425;52.126;20.638;2023-02-04T09:59:20;57863.19;;;-144.78;89.99
55994;BME280;67425;52.126;20.638;2023-02-04T10:01:58;57850.72;;;-144.78;90.57
55994;BME280;67425;52.126;20.638;2023-02-04T10:04:23;57869.41;;;-144.78;91.34
55994;BME280;67425;52.126;20.638;2023-02-04T10:06:49;57888.09;;;-144.78;90.23
55994;BME280;67425;52.126;20.638;2023-02-04T10:09:15;57875.63;;;-144.78;90.99
55994;BME280;67425;52.126;20.638;2023-02-04T10:11:43;57846.56;;;-144.78;90.38
55994;BME280;67425;52.126;20.638;2023-02-04T10:14:14;57861.09;;;-144.78;90.89
55994;BME280;67425;52.126;20.638;2023-02-04T10:16:41;57834.09;;;-144.78;90.69
55994;BME280;67425;52.126;20.638;2023-02-04T10:19:12;57869.41;;;-144.78;91.49
55994;BME280;67425;52.126;20.638;2023-02-04T10:21:39;57859.03;;;-144.78;90.90
55994;BME280;67425;52.126;20.638;2023-02-04T10:24:16;57886.03;;;-144.78;91.23
55994;BME280;67425;52.126;20.638;2023-02-04T10:26:42;57856.94;;;-144.78;91.37
55994;BME280;67425;52.126;20.638;2023-02-04T10:29:16;57852.78;;;-144.78;89.45
55994;BME280;67425;52.126;20.638;2023-02-04T10:31:44;57846.56;;;-144.78;88.46
55994;BME280;67425;52.126;20.638;2023-02-04T10:36:50;57844.47;;;-144.78;89.44
55994;BME280;67425;52.126;20.638;2023-02-04T10:39:21;57852.78;;;-144.78;88.33
55994;BME280;67425;52.126;20.638;2023-02-04T10:41:49;57871.50;;;-144.78;89.94
55994;BME280;67425;52.126;20.638;2023-02-04T10:44:18;57842.41;;;-144.78;88.18
55994;BME280;67425;52.126;20.638;2023-02-04T10:46:43;57827.88;;;-144.78;88.73
55994;BME280;67425;52.126;20.638;2023-02-04T10:49:21;57827.88;;;-144.78;88.39
55994;BME280;67425;52.126;20.638;2023-02-04T10:51:48;57829.94;;;-144.78;87.90
55994;BME280;67425;52.126;20.638;2023-02-04T10:54:14;57834.09;;;-144.78;88.03
55994;BME280;67425;52.126;20.638;2023-02-04T10:56:59;57825.78;;;-144.78;88.86
55994;BME280;67425;52.126;20.638;2023-02-04T10:59:29;57834.09;;;-144.78;88.21
55994;BME280;67425;52.126;20.638;2023-02-04T11:01:55;57823.72;;;-144.78;87.44
55994;BME280;67425;52.126;20.638;2023-02-04T11:04:21;57859.03;;;-144.78;88.07
55994;BME280;67425;52.126;20.638;2023-02-04T11:06:47;57842.41;;;-144.78;88.40
55994;BME280;67425;52.126;20.638;2023-02-04T11:09:13;57850.72;;;-144.78;88.57
55994;BME280;67425;52.126;20.638;2023-02-04T11:11:44;57846.56;;;-144.78;87.64
55994;BME280;67425;52.126;20.638;2023-02-04T11:14:36;57846.56;;;-144.78;89.16
55994;BME280;67425;52.126;20.638;2023-02-04T11:17:02;57840.34;;;-144.78;88.15
55994;BME280;67425;52.126;20.638;2023-02-04T11:19:45;57859.03;;;-144.78;87.74
55994;BME280;67425;52.126;20.638;2023-02-04T11:24:46;57861.09;;;-144.78;88.32
55994;BME280;67425;52.126;20.638;2023-02-04T11:27:23;57852.78;;;-144.78;88.64
55994;BME280;67425;52.126;20.638;2023-02-04T11:29:49;57823.72;;;-144.78;88.13
55994;BME280;67425;52.126;20.638;2023-02-04T11:32:35;57869.41;;;-144.78;89.93
55994;BME280;67425;52.126;20.638;2023-02-04T11:37:38;57871.50;;;-144.78;89.28
55994;BME280;67425;52.126;20.638;2023-02-04T11:40:28;57844.47;;;-144.78;88.10
55994;BME280;67425;52.126;20.638;2023-02-04T11:43:01;57842.41;;;-144.78;89.33
55994;BME280;67425;52.126;20.638;2023-02-04T11:45:33;57852.78;;;-144.78;88.63
55994;BME280;67425;52.126;20.638;2023-02-04T11:48:02;57813.34;;;-144.78;86.39
55994;BME280;67425;52.126;20.638;2023-02-04T11:50:31;57829.94;;;-144.78;87.28
55994;BME280;67425;52.126;20.638;2023-02-04T11:52:58;57788.41;;;-144.78;87.35
55994;BME280;67425;52.126;20.638;2023-02-04T11:55:25;57825.78;;;-144.78;87.08
55994;BME280;67425;52.126;20.638;2023-02-04T11:57:52;57854.88;;;-144.78;88.58
55994;BME280;67425;52.126;20.638;2023-02-04T12:00:21;57842.41;;;-144.78;89.96
55994;BME280;67425;52.126;20.638;2023-02-04T12:02:58;57825.78;;;-144.78;89.35
55994;BME280;67425;52.126;20.638;2023-02-04T12:05:41;57873.56;;;-144.78;90.88
55994;BME280;67425;52.126;20.638;2023-02-04T12:08:12;57869.41;;;-144.78;90.89
55994;BME280;67425;52.126;20.638;2023-02-04T12:10:38;57844.47;;;-144.78;90.25
55994;BME280;67425;52.126;20.638;2023-02-04T12:13:12;57846.56;;;-144.78;89.49
55994;BME280;67425;52.126;20.638;2023-02-04T12:15:40;57832.03;;;-144.78;89.81
55994;BME280;67425;52.126;20.638;2023-02-04T12:18:09;57840.34;;;-144.78;89.35
55994;BME280;67425;52.126;20.638;2023-02-04T12:20:40;57850.72;;;-144.78;89.49
55994;BME280;67425;52.126;20.638;2023-02-04T12:23:05;57821.63;;;-144.78;89.79
55994;BME280;67425;52.126;20.638;2023-02-04T12:25:32;57856.94;;;-144.78;89.67
55994;BME280;67425;52.126;20.638;2023-02-04T12:27:58;57854.88;;;-144.78;92.08
55994;BME280;67425;52.126;20.638;2023-02-04T12:30:24;57834.09;;;-144.78;91.13
55994;BME280;67425;52.126;20.638;2023-02-04T12:32:50;57848.63;;;-144.78;90.79